sensor_id;sensor_type;location;lat;lon;timestamp;pressure;altitude;pressure_sealevel;temperature;humidity
25869;BME280;13688;53.154;18.136;2023-05-16T00:02:27;99798.33;;;10.97;100.00
25869;BME280;13688;53.154;18.136;2023-05-16T00:07:52;99801.17;;;10.95;100.00
25869;BME280;13688;53.154;18.136;2023-05-16T00:13:14;99805.55;;;10.96;100.00
25869;BME280;13688;53.154;18.136;2023-05-16T00:18:38;99807.69;;;10.93;100.00
25869;BME280;13688;53.154;18.136;2023-05-16T00:24:02;99817.45;;;10.94;100.00
25869;BME280;13688;53.154;18.136;2023-05-16T00:29:25;99808.39;;;10.95;100.00
25869;BME280;13688;53.154;18.136;2023-05-16T00:34:47;99798.62;;;10.94;100.00
25869;BME280;13688;53.154;18.136;2023-05-16T00:40:10;99816.03;;;10.89;100.00
25869;BME280;13688;53.154;18.136;2023-05-16T00:45:33;99818.31;;;10.84;100.00
25869;BME280;13688;53.154;18.136;2023-05-16T00:50:56;99812.94;;;10.84;100.00
25869;BME280;13688;53.154;18.136;2023-05-16T00:56:19;99810.39;;;10.83;100.00
25869;BME280;13688;53.154;18.136;2023-05-16T01:01:44;99812.64;;;10.78;100.00
25869;BME280;13688;53.154;18.136;2023-05-16T01:07:08;99820.16;;;10.74;100.00
25869;BME280;13688;53.154;18.136;2023-05-16T01:12:47;99832.91;;;10.72;100.00
25869;BME280;13688;53.154;18.136;2023-05-16T01:18:38;99837.55;;;10.70;100.00
25869;BME280;13688;53.154;18.136;2023-05-16T01:29:40;99842.22;;;10.68;100.00
25869;BME280;13688;53.154;18.136;2023-05-16T01:35:02;99854.12;;;10.66;100.00
25869;BME280;13688;53.154;18.136;2023-05-16T01:45:56;99851.43;;;10.66;100.00
25869;BME280;13688;53.154;18.136;2023-05-16T01:51:37;99855.96;;;10.65;100.00
25869;BME280;13688;53.154;18.136;2023-05-16T01:57:04;99864.85;;;10.46;100.00
25869;BME280;13688;53.154;18.136;2023-05-16T02:02:30;99871.63;;;10.41;100.00
25869;BME280;13688;53.154;18.136;2023-05-16T02:07:52;99860.88;;;10.41;100.00
25869;BME280;13688;53.154;18.136;2023-05-16T02:13:15;99862.86;;;10.39;100.00
25869;BME280;13688;53.154;18.136;2023-05-16T02:18:38;99874.45;;;10.39;100.00
25869;BME280;13688;53.154;18.136;2023-05-16T02:24:00;99881.66;;;10.39;100.00
25869;BME280;13688;53.154;18.136;2023-05-16T02:29:23;99895.95;;;10.39;100.00
25869;BME280;13688;53.154;18.136;2023-05-16T02:34:45;99889.17;;;10.35;100.00
25869;BME280;13688;53.154;18.136;2023-05-16T02:46:32;99917.14;;;10.32;100.00
25869;BME280;13688;53.154;18.136;2023-05-16T02:51:55;99925.48;;;10.29;100.00
25869;BME280;13688;53.154;18.136;2023-05-16T02:57:18;99930.44;;;10.24;100.00
25869;BME280;13688;53.154;18.136;2023-05-16T03:02:40;99929.59;;;10.24;100.00
25869;BME280;13688;53.154;18.136;2023-05-16T03:08:03;99947.91;;;10.19;100.00
25869;BME280;13688;53.154;18.136;2023-05-16T03:13:25;99950.94;;;10.25;100.00
25869;BME280;13688;53.154;18.136;2023-05-16T03:18:48;99958.40;;;10.22;100.00
25869;BME280;13688;53.154;18.136;2023-05-16T03:24:12;99963.03;;;10.20;100.00
25869;BME280;13688;53.154;18.136;2023-05-16T03:29:35;99976.47;;;10.20;100.00
25869;BME280;13688;53.154;18.136;2023-05-16T03:34:57;99960.34;;;10.20;100.00
25869;BME280;13688;53.154;18.136;2023-05-16T03:40:20;99996.97;;;10.21;100.00
25869;BME280;13688;53.154;18.136;2023-05-16T03:45:43;99986.11;;;10.22;100.00
25869;BME280;13688;53.154;18.136;2023-05-16T03:51:05;99994.91;;;10.24;100.00
25869;BME280;13688;53.154;18.136;2023-05-16T03:56:27;100007.08;;;10.28;100.00
25869;BME280;13688;53.154;18.136;2023-05-16T04:01:50;100004.39;;;10.28;100.00
25869;BME280;13688;53.154;18.136;2023-05-16T04:07:13;100006.09;;;10.29;100.00
25869;BME280;13688;53.154;18.136;2023-05-16T04:12:36;100010.23;;;10.34;100.00
25869;BME280;13688;53.154;18.136;2023-05-16T04:17:58;100012.50;;;10.38;100.00
25869;BME280;13688;53.154;18.136;2023-05-16T04:23:21;100008.61;;;10.52;100.00
25869;BME280;13688;53.154;18.136;2023-05-16T04:28:44;100046.56;;;10.68;100.00
25869;BME280;13688;53.154;18.136;2023-05-16T04:34:08;100051.94;;;10.68;100.00
25869;BME280;13688;53.154;18.136;2023-05-16T04:39:33;100064.56;;;10.77;99.99
25869;BME280;13688;53.154;18.136;2023-05-16T04:44:57;100079.28;;;10.73;98.65
25869;BME280;13688;53.154;18.136;2023-05-16T04:50:20;100086.50;;;10.73;97.93
25869;BME280;13688;53.154;18.136;2023-05-16T04:55:43;100094.70;;;10.71;97.89
25869;BME280;13688;53.154;18.136;2023-05-16T05:01:05;100101.18;;;10.69;97.99
25869;BME280;13688;53.154;18.136;2023-05-16T05:06:27;100127.41;;;10.76;98.19
25869;BME280;13688;53.154;18.136;2023-05-16T05:11:50;100116.12;;;10.82;98.04
25869;BME280;13688;53.154;18.136;2023-05-16T05:17:12;100130.59;;;10.91;97.21
25869;BME280;13688;53.154;18.136;2023-05-16T05:22:35;100152.72;;;11.04;96.11
25869;BME280;13688;53.154;18.136;2023-05-16T05:27:58;100167.62;;;11.18;94.69
25869;BME280;13688;53.154;18.136;2023-05-16T05:33:25;100186.63;;;11.26;93.09
25869;BME280;13688;53.154;18.136;2023-05-16T05:38:46;100185.98;;;11.43;92.03
25869;BME280;13688;53.154;18.136;2023-05-16T05:44:08;100198.92;;;11.59;90.43
25869;BME280;13688;53.154;18.136;2023-05-16T05:49:31;100217.86;;;11.88;88.04
25869;BME280;13688;53.154;18.136;2023-05-16T05:54:54;100205.94;;;11.91;86.21
25869;BME280;13688;53.154;18.136;2023-05-16T06:00:17;100212.34;;;11.99;85.33
25869;BME280;13688;53.154;18.136;2023-05-16T06:05:39;100223.81;;;12.01;84.86
25869;BME280;13688;53.154;18.136;2023-05-16T06:11:01;100209.05;;;12.06;84.33
25869;BME280;13688;53.154;18.136;2023-05-16T06:16:24;100207.66;;;12.21;83.22
25869;BME280;13688;53.154;18.136;2023-05-16T06:21:49;100226.95;;;12.45;82.30
25869;BME280;13688;53.154;18.136;2023-05-16T06:27:11;100229.75;;;12.53;81.01
25869;BME280;13688;53.154;18.136;2023-05-16T06:32:34;100234.89;;;12.47;80.73
25869;BME280;13688;53.154;18.136;2023-05-16T06:37:56;100254.03;;;12.34;81.17
25869;BME280;13688;53.154;18.136;2023-05-16T06:43:19;100274.33;;;12.19;82.24
25869;BME280;13688;53.154;18.136;2023-05-16T06:48:41;100283.95;;;12.02;82.39
25869;BME280;13688;53.154;18.136;2023-05-16T06:54:03;100288.92;;;11.97;83.13
25869;BME280;13688;53.154;18.136;2023-05-16T06:59:26;100290.73;;;11.96;83.25
25869;BME280;13688;53.154;18.136;2023-05-16T07:04:48;100308.88;;;11.94;83.45
25869;BME280;13688;53.154;18.136;2023-05-16T07:10:11;100313.02;;;11.98;83.88
25869;BME280;13688;53.154;18.136;2023-05-16T07:15:34;100329.61;;;12.03;83.80
25869;BME280;13688;53.154;18.136;2023-05-16T07:20:56;100345.42;;;12.27;83.39
25869;BME280;13688;53.154;18.136;2023-05-16T07:26:20;100348.14;;;12.37;82.25
25869;BME280;13688;53.154;18.136;2023-05-16T07:31:43;100359.49;;;12.50;81.56
25869;BME280;13688;53.154;18.136;2023-05-16T07:37:05;100374.52;;;12.43;80.48
25869;BME280;13688;53.154;18.136;2023-05-16T07:42:30;100379.78;;;12.54;80.68
25869;BME280;13688;53.154;18.136;2023-05-16T07:47:53;100383.07;;;12.58;80.50
25869;BME280;13688;53.154;18.136;2023-05-16T07:53:15;100398.27;;;12.78;79.99
25869;BME280;13688;53.154;18.136;2023-05-16T07:58:38;100438.19;;;12.75;79.42
25869;BME280;13688;53.154;18.136;2023-05-16T08:04:01;100448.09;;;12.55;78.97
25869;BME280;13688;53.154;18.136;2023-05-16T08:09:24;100444.69;;;12.72;79.31
25869;BME280;13688;53.154;18.136;2023-05-16T08:14:46;100449.09;;;12.83;79.25
25869;BME280;13688;53.154;18.136;2023-05-16T08:20:10;100453.94;;;12.79;79.30
25869;BME280;13688;53.154;18.136;2023-05-16T08:25:32;100462.19;;;12.87;78.65
25869;BME280;13688;53.154;18.136;2023-05-16T08:30:55;100451.41;;;13.07;78.35
25869;BME280;13688;53.154;18.136;2023-05-16T08:36:17;100449.72;;;13.44;76.98
25869;BME280;13688;53.154;18.136;2023-05-16T08:41:40;100432.14;;;13.78;74.92
25869;BME280;13688;53.154;18.136;2023-05-16T08:47:11;100435.87;;;14.41;73.57
25869;BME280;13688;53.154;18.136;2023-05-16T08:52:36;100464.02;;;14.21;71.32
25869;BME280;13688;53.154;18.136;2023-05-16T08:58:00;100446.65;;;13.77;72.45
25869;BME280;13688;53.154;18.136;2023-05-16T09:03:23;100457.59;;;14.22;72.23
25869;BME280;13688;53.154;18.136;2023-05-16T09:08:46;100451.45;;;14.57;70.99
25869;BME280;13688;53.154;18.136;2023-05-16T09:14:10;100469.48;;;14.66;69.10
25869;BME280;13688;53.154;18.136;2023-05-16T09:19:41;100464.70;;;14.60;68.65
25869;BME280;13688;53.154;18.136;2023-05-16T09:25:03;100454.19;;;14.75;68.31
25869;BME280;13688;53.154;18.136;2023-05-16T09:30:35;100448.80;;;14.93;68.07
25869;BME280;13688;53.154;18.136;2023-05-16T09:36:03;100459.88;;;15.17;67.15
25869;BME280;13688;53.154;18.136;2023-05-16T09:41:27;100466.67;;;15.03;65.61
25869;BME280;13688;53.154;18.136;2023-05-16T09:46:52;100471.06;;;15.58;65.28
25869;BME280;13688;53.154;18.136;2023-05-16T09:52:15;100476.52;;;16.10;63.69
25869;BME280;13688;53.154;18.136;2023-05-16T09:57:37;100497.32;;;15.39;62.35
25869;BME280;13688;53.154;18.136;2023-05-16T10:03:01;100494.13;;;15.44;63.80
25869;BME280;13688;53.154;18.136;2023-05-16T10:08:30;100488.33;;;15.57;63.54
25869;BME280;13688;53.154;18.136;2023-05-16T10:13:54;100480.06;;;16.70;59.84
25869;BME280;13688;53.154;18.136;2023-05-16T10:19:19;100469.88;;;16.38;58.95
25869;BME280;13688;53.154;18.136;2023-05-16T10:24:47;100511.49;;;16.21;60.03
25869;BME280;13688;53.154;18.136;2023-05-16T10:30:13;100524.69;;;16.76;58.06
25869;BME280;13688;53.154;18.136;2023-05-16T10:35:37;100526.20;;;17.37;56.22
25869;BME280;13688;53.154;18.136;2023-05-16T10:41:00;100536.27;;;18.01;55.58
25869;BME280;13688;53.154;18.136;2023-05-16T10:46:25;100517.22;;;17.53;53.68
25869;BME280;13688;53.154;18.136;2023-05-16T10:52:04;100529.73;;;17.13;56.36
25869;BME280;13688;53.154;18.136;2023-05-16T10:57:29;100544.96;;;16.98;56.16
25869;BME280;13688;53.154;18.136;2023-05-16T11:02:53;100524.13;;;17.14;56.18
25869;BME280;13688;53.154;18.136;2023-05-16T11:08:20;100538.51;;;16.91;56.05
25869;BME280;13688;53.154;18.136;2023-05-16T11:13:53;100539.12;;;16.76;55.64
25869;BME280;13688;53.154;18.136;2023-05-16T11:19:29;100547.94;;;16.78;56.33
25869;BME280;13688;53.154;18.136;2023-05-16T11:25:17;100543.21;;;17.39;56.06
25869;BME280;13688;53.154;18.136;2023-05-16T11:30:46;100544.36;;;17.20;55.28
25869;BME280;13688;53.154;18.136;2023-05-16T11:36:13;100555.88;;;17.14;54.89
25869;BME280;13688;53.154;18.136;2023-05-16T11:41:37;100576.43;;;17.08;54.98
25869;BME280;13688;53.154;18.136;2023-05-16T11:47:01;100569.50;;;17.22;55.61
25869;BME280;13688;53.154;18.136;2023-05-16T11:52:24;100582.58;;;17.19;54.78
25869;BME280;13688;53.154;18.136;2023-05-16T11:57:50;100581.61;;;17.52;53.77
25869;BME280;13688;53.154;18.136;2023-05-16T12:03:14;100591.30;;;17.55;54.33
25869;BME280;13688;53.154;18.136;2023-05-16T12:08:37;100587.18;;;17.34;55.38
25869;BME280;13688;53.154;18.136;2023-05-16T12:14:06;100596.80;;;17.12;55.78
25869;BME280;13688;53.154;18.136;2023-05-16T12:19:30;100608.69;;;17.11;55.56
25869;BME280;13688;53.154;18.136;2023-05-16T12:24:54;100623.22;;;16.94;54.96
25869;BME280;13688;53.154;18.136;2023-05-16T12:30:42;100636.96;;;16.93;55.99
25869;BME280;13688;53.154;18.136;2023-05-16T12:36:03;100620.41;;;16.78;56.80
25869;BME280;13688;53.154;18.136;2023-05-16T12:41:29;100621.14;;;16.88;57.39
25869;BME280;13688;53.154;18.136;2023-05-16T12:46:57;100627.30;;;16.98;56.69
25869;BME280;13688;53.154;18.136;2023-05-16T12:52:23;100632.98;;;17.13;56.13
25869;BME280;13688;53.154;18.136;2023-05-16T12:57:47;100630.84;;;17.33;55.62
25869;BME280;13688;53.154;18.136;2023-05-16T13:03:11;100630.97;;;18.14;54.22
25869;BME280;13688;53.154;18.136;2023-05-16T13:08:35;100639.30;;;19.17;50.46
25869;BME280;13688;53.154;18.136;2023-05-16T13:13:57;100637.97;;;18.17;51.17
25869;BME280;13688;53.154;18.136;2023-05-16T13:19:21;100634.80;;;17.04;53.88
25869;BME280;13688;53.154;18.136;2023-05-16T13:24:43;100639.83;;;16.65;57.66
25869;BME280;13688;53.154;18.136;2023-05-16T13:30:06;100654.58;;;16.88;60.63
25869;BME280;13688;53.154;18.136;2023-05-16T13:35:28;100658.88;;;16.47;62.26
25869;BME280;13688;53.154;18.136;2023-05-16T13:40:51;100663.21;;;16.14;63.70
25869;BME280;13688;53.154;18.136;2023-05-16T13:46:14;100682.73;;;16.18;65.69
25869;BME280;13688;53.154;18.136;2023-05-16T13:51:38;100672.11;;;16.24;66.98
25869;BME280;13688;53.154;18.136;2023-05-16T13:57:00;100679.33;;;16.16;68.27
25869;BME280;13688;53.154;18.136;2023-05-16T14:02:23;100685.28;;;16.19;66.43
25869;BME280;13688;53.154;18.136;2023-05-16T14:07:47;100684.22;;;16.56;64.29
25869;BME280;13688;53.154;18.136;2023-05-16T14:13:10;100675.43;;;16.80;60.38
25869;BME280;13688;53.154;18.136;2023-05-16T14:18:33;100662.09;;;16.95;58.01
25869;BME280;13688;53.154;18.136;2023-05-16T14:23:55;100673.75;;;16.87;57.53
25869;BME280;13688;53.154;18.136;2023-05-16T14:29:20;100660.55;;;16.92;58.09
25869;BME280;13688;53.154;18.136;2023-05-16T14:34:47;100674.14;;;16.92;58.02
25869;BME280;13688;53.154;18.136;2023-05-16T14:40:10;100683.58;;;16.80;57.06
25869;BME280;13688;53.154;18.136;2023-05-16T14:45:37;100677.54;;;16.68;56.54
25869;BME280;13688;53.154;18.136;2023-05-16T14:51:00;100675.67;;;16.69;56.00
25869;BME280;13688;53.154;18.136;2023-05-16T14:56:23;100686.59;;;16.77;56.98
25869;BME280;13688;53.154;18.136;2023-05-16T15:01:46;100680.80;;;16.72;56.40
25869;BME280;13688;53.154;18.136;2023-05-16T15:07:08;100683.66;;;16.96;56.27
25869;BME280;13688;53.154;18.136;2023-05-16T15:12:31;100680.80;;;16.72;56.97
25869;BME280;13688;53.154;18.136;2023-05-16T15:17:54;100682.09;;;16.68;57.61
25869;BME280;13688;53.154;18.136;2023-05-16T15:23:17;100687.20;;;16.45;57.54
25869;BME280;13688;53.154;18.136;2023-05-16T15:28:40;100696.80;;;16.39;58.82
25869;BME280;13688;53.154;18.136;2023-05-16T15:34:04;100704.75;;;16.33;59.66
25869;BME280;13688;53.154;18.136;2023-05-16T15:39:26;100696.05;;;16.11;60.00
25869;BME280;13688;53.154;18.136;2023-05-16T15:44:49;100702.73;;;15.99;61.37
25869;BME280;13688;53.154;18.136;2023-05-16T15:50:12;100703.50;;;15.73;62.36
25869;BME280;13688;53.154;18.136;2023-05-16T15:55:35;100691.27;;;15.60;63.63
25869;BME280;13688;53.154;18.136;2023-05-16T16:00:58;100710.61;;;15.47;64.07
25869;BME280;13688;53.154;18.136;2023-05-16T16:06:21;100718.37;;;15.32;64.95
25869;BME280;13688;53.154;18.136;2023-05-16T16:11:44;100738.84;;;15.17;65.89
25869;BME280;13688;53.154;18.136;2023-05-16T16:17:06;100737.45;;;15.03;66.94
25869;BME280;13688;53.154;18.136;2023-05-16T16:22:30;100732.80;;;14.86;67.48
25869;BME280;13688;53.154;18.136;2023-05-16T16:27:53;100743.39;;;14.70;67.96
25869;BME280;13688;53.154;18.136;2023-05-16T16:33:16;100739.55;;;14.63;68.58
25869;BME280;13688;53.154;18.136;2023-05-16T16:38:40;100737.71;;;14.53;69.12
25869;BME280;13688;53.154;18.136;2023-05-16T16:44:03;100744.84;;;14.45;68.85
25869;BME280;13688;53.154;18.136;2023-05-16T16:49:25;100742.13;;;14.45;69.17
25869;BME280;13688;53.154;18.136;2023-05-16T16:54:49;100734.72;;;14.47;69.72
25869;BME280;13688;53.154;18.136;2023-05-16T17:00:13;100746.25;;;14.39;70.00
25869;BME280;13688;53.154;18.136;2023-05-16T17:05:37;100753.62;;;14.37;70.42
25869;BME280;13688;53.154;18.136;2023-05-16T17:10:59;100762.74;;;14.26;70.79
25869;BME280;13688;53.154;18.136;2023-05-16T17:16:24;100769.84;;;14.08;71.68
25869;BME280;13688;53.154;18.136;2023-05-16T17:21:47;100777.66;;;13.92;72.83
25869;BME280;13688;53.154;18.136;2023-05-16T17:27:10;100786.83;;;13.70;73.59
25869;BME280;13688;53.154;18.136;2023-05-16T17:32:33;100793.05;;;13.51;73.35
25869;BME280;13688;53.154;18.136;2023-05-16T17:37:56;100804.39;;;13.45;72.63
25869;BME280;13688;53.154;18.136;2023-05-16T17:43:20;100806.77;;;13.38;72.14
25869;BME280;13688;53.154;18.136;2023-05-16T17:48:44;100813.59;;;13.33;72.16
25869;BME280;13688;53.154;18.136;2023-05-16T17:54:07;100817.39;;;13.30;72.48
25869;BME280;13688;53.154;18.136;2023-05-16T17:59:30;100820.78;;;13.23;73.02
25869;BME280;13688;53.154;18.136;2023-05-16T18:04:53;100826.03;;;13.03;74.53
25869;BME280;13688;53.154;18.136;2023-05-16T18:10:16;100825.77;;;12.85;76.06
25869;BME280;13688;53.154;18.136;2023-05-16T18:15:41;100827.63;;;12.53;76.79
25869;BME280;13688;53.154;18.136;2023-05-16T18:21:03;100844.20;;;12.16;76.07
25869;BME280;13688;53.154;18.136;2023-05-16T18:26:26;100854.25;;;12.03;74.45
25869;BME280;13688;53.154;18.136;2023-05-16T18:31:49;100856.58;;;11.96;74.13
25869;BME280;13688;53.154;18.136;2023-05-16T18:37:12;100857.10;;;11.90;74.06
25869;BME280;13688;53.154;18.136;2023-05-16T18:42:35;100864.69;;;11.85;74.47
25869;BME280;13688;53.154;18.136;2023-05-16T18:47:58;100878.77;;;11.78;75.00
25869;BME280;13688;53.154;18.136;2023-05-16T18:53:22;100882.92;;;11.70;75.60
25869;BME280;13688;53.154;18.136;2023-05-16T18:58:45;100895.75;;;11.67;76.03
25869;BME280;13688;53.154;18.136;2023-05-16T19:04:08;100903.23;;;11.63;76.48
25869;BME280;13688;53.154;18.136;2023-05-16T19:09:31;100910.45;;;11.63;76.80
25869;BME280;13688;53.154;18.136;2023-05-16T19:14:55;100923.06;;;11.62;77.28
25869;BME280;13688;53.154;18.136;2023-05-16T19:20:18;100920.50;;;11.61;77.73
25869;BME280;13688;53.154;18.136;2023-05-16T19:25:40;100913.62;;;11.57;78.03
25869;BME280;13688;53.154;18.136;2023-05-16T19:31:03;100913.27;;;11.50;78.37
25869;BME280;13688;53.154;18.136;2023-05-16T19:36:26;100919.86;;;11.46;78.85
25869;BME280;13688;53.154;18.136;2023-05-16T19:41:49;100922.41;;;11.36;79.24
25869;BME280;13688;53.154;18.136;2023-05-16T19:47:13;100930.98;;;11.30;79.31
25869;BME280;13688;53.154;18.136;2023-05-16T19:52:37;100931.31;;;11.26;78.85
25869;BME280;13688;53.154;18.136;2023-05-16T19:58:00;100940.98;;;11.28;78.38
25869;BME280;13688;53.154;18.136;2023-05-16T20:03:23;100944.66;;;11.27;78.14
25869;BME280;13688;53.154;18.136;2023-05-16T20:08:45;100942.94;;;11.26;78.13
25869;BME280;13688;53.154;18.136;2023-05-16T20:14:08;100947.01;;;11.32;78.54
25869;BME280;13688;53.154;18.136;2023-05-16T20:24:45;100948.97;;;11.30;79.90
25869;BME280;13688;53.154;18.136;2023-05-16T20:30:09;100940.74;;;11.20;79.78
25869;BME280;13688;53.154;18.136;2023-05-16T20:35:31;100946.34;;;11.17;79.76
25869;BME280;13688;53.154;18.136;2023-05-16T20:40:53;100940.22;;;11.15;79.58
25869;BME280;13688;53.154;18.136;2023-05-16T20:46:16;100935.55;;;11.06;79.97
25869;BME280;13688;53.154;18.136;2023-05-16T20:51:38;100943.73;;;11.04;80.17
25869;BME280;13688;53.154;18.136;2023-05-16T20:57:01;100948.50;;;11.01;80.11
25869;BME280;13688;53.154;18.136;2023-05-16T21:02:25;100944.84;;;11.02;80.14
25869;BME280;13688;53.154;18.136;2023-05-16T21:07:48;100947.73;;;10.99;80.42
25869;BME280;13688;53.154;18.136;2023-05-16T21:13:11;100946.88;;;10.98;81.01
25869;BME280;13688;53.154;18.136;2023-05-16T21:18:33;100956.30;;;10.93;81.79
25869;BME280;13688;53.154;18.136;2023-05-16T21:23:57;100955.44;;;10.92;82.48
25869;BME280;13688;53.154;18.136;2023-05-16T21:29:20;100958.70;;;10.84;82.53
25869;BME280;13688;53.154;18.136;2023-05-16T21:34:42;100956.33;;;10.80;82.49
25869;BME280;13688;53.154;18.136;2023-05-16T21:40:05;100956.33;;;10.80;82.43
25869;BME280;13688;53.154;18.136;2023-05-16T21:45:30;100962.73;;;10.90;82.52
25869;BME280;13688;53.154;18.136;2023-05-16T21:50:52;100963.72;;;10.89;82.04
25869;BME280;13688;53.154;18.136;2023-05-16T21:56:14;100954.58;;;10.92;81.62
25869;BME280;13688;53.154;18.136;2023-05-16T22:01:37;100961.67;;;10.93;81.35
25869;BME280;13688;53.154;18.136;2023-05-16T22:06:59;100964.41;;;10.80;82.15
25869;BME280;13688;53.154;18.136;2023-05-16T22:12:22;100959.77;;;10.58;83.64
25869;BME280;13688;53.154;18.136;2023-05-16T22:17:44;100957.88;;;10.47;84.78
25869;BME280;13688;53.154;18.136;2023-05-16T22:23:07;100975.77;;;10.36;85.26
25869;BME280;13688;53.154;18.136;2023-05-16T22:28:29;100977.30;;;10.27;85.79
25869;BME280;13688;53.154;18.136;2023-05-16T22:33:51;100974.27;;;10.19;86.53
25869;BME280;13688;53.154;18.136;2023-05-16T22:39:14;100978.81;;;10.06;87.53
25869;BME280;13688;53.154;18.136;2023-05-16T22:44:36;100985.35;;;10.01;88.23
25869;BME280;13688;53.154;18.136;2023-05-16T22:49:59;100993.09;;;9.93;88.78
25869;BME280;13688;53.154;18.136;2023-05-16T22:55:22;100988.80;;;9.91;89.04
25869;BME280;13688;53.154;18.136;2023-05-16T23:00:45;100998.69;;;9.90;89.16
25869;BME280;13688;53.154;18.136;2023-05-16T23:06:08;101000.94;;;9.84;89.24
25869;BME280;13688;53.154;18.136;2023-05-16T23:11:31;100994.81;;;9.82;89.62
25869;BME280;13688;53.154;18.136;2023-05-16T23:16:53;101000.19;;;9.82;89.84
25869;BME280;13688;53.154;18.136;2023-05-16T23:22:16;100999.78;;;9.75;89.97
25869;BME280;13688;53.154;18.136;2023-05-16T23:27:38;100999.86;;;9.73;90.24
25869;BME280;13688;53.154;18.136;2023-05-16T23:33:00;101003.33;;;9.75;90.34
25869;BME280;13688;53.154;18.136;2023-05-16T23:38:23;100997.17;;;9.73;90.38
25869;BME280;13688;53.154;18.136;2023-05-16T23:43:45;100995.69;;;9.69;90.64
25869;BME280;13688;53.154;18.136;2023-05-16T23:49:08;100997.92;;;9.63;91.06
25869;BME280;13688;53.154;18.136;2023-05-16T23:54:33;101000.61;;;9.63;91.25
25869;BME280;13688;53.154;18.136;2023-05-16T23:59:56;101008.48;;;9.66;91.15
